createdAt,value
2023-12-16T00:03:35.656Z,89.08
2023-12-16T00:07:19.020Z,89.29
2023-12-16T00:11:06.675Z,89.82
2023-12-16T00:25:00.984Z,88.54
2023-12-16T00:27:29.302Z,88.75
2023-12-16T00:29:57.476Z,88.93
2023-12-16T00:38:50.375Z,89.37
2023-12-16T00:42:01.980Z,89.88
2023-12-16T00:45:58.465Z,90.15
2023-12-16T00:49:44.031Z,89.61
2023-12-16T00:52:12.085Z,89.42
2023-12-16T00:54:40.858Z,89.46
2023-12-16T00:57:09.002Z,89.55
2023-12-16T00:59:40.068Z,89.54
2023-12-16T01:03:34.049Z,89.86
2023-12-16T01:07:15.694Z,89.63
2023-12-16T01:09:54.503Z,89.45
2023-12-16T01:12:22.614Z,89.66
2023-12-16T01:14:52.490Z,89.93
2023-12-16T01:17:22.982Z,90.34
2023-12-16T01:21:12.896Z,90.79
2023-12-16T01:25:13.993Z,91.13
2023-12-16T01:27:42.749Z,91.23
2023-12-16T01:30:09.816Z,91.84
2023-12-16T01:32:36.563Z,91.76
2023-12-16T01:35:04.523Z,91.88
2023-12-16T01:37:35.768Z,91.88
2023-12-16T01:40:04.095Z,92.53
2023-12-16T01:42:30.832Z,92.25
2023-12-16T01:44:57.969Z,91.85
2023-12-16T01:47:29.795Z,92.10
2023-12-16T01:50:03.546Z,92.69
2023-12-16T01:52:31.276Z,92.56
2023-12-16T01:54:58.147Z,92.73
2023-12-16T01:57:25.069Z,92.55
2023-12-16T02:00:35.242Z,92.69
2023-12-16T02:03:02.594Z,92.90
2023-12-16T02:05:29.644Z,93.01
2023-12-16T02:07:56.331Z,92.85
2023-12-16T02:10:23.162Z,93.05
2023-12-16T02:12:50.561Z,93.27
2023-12-16T02:15:18.797Z,92.94
2023-12-16T02:17:45.541Z,93.20
2023-12-16T02:20:14.867Z,93.37
2023-12-16T02:26:58.146Z,93.56
2023-12-16T02:29:24.755Z,93.32
2023-12-16T02:31:51.642Z,93.11
2023-12-16T02:34:43.317Z,93.11
2023-12-16T02:38:16.304Z,93.02
2023-12-16T02:41:48.411Z,93.41
2023-12-16T02:45:41.165Z,93.82
2023-12-16T02:49:07.374Z,93.54
2023-12-16T02:52:45.283Z,93.70
2023-12-16T02:56:22.967Z,93.88
2023-12-16T03:00:01.004Z,93.91
2023-12-16T03:03:39.621Z,93.80
2023-12-16T03:18:17.003Z,93.14
2023-12-16T03:20:55.486Z,93.49
2023-12-16T03:25:07.963Z,93.14
2023-12-16T03:28:15.245Z,93.30
2023-12-16T03:42:23.358Z,92.93
2023-12-16T03:45:38.033Z,93.06
2023-12-16T03:48:51.258Z,93.55
2023-12-16T03:51:22.581Z,93.62
2023-12-16T03:53:52.723Z,93.71
2023-12-16T03:56:21.938Z,93.75
2023-12-16T03:58:50.170Z,94.04
2023-12-16T04:01:18.283Z,93.82
2023-12-16T04:03:46.277Z,93.67
2023-12-16T04:06:16.697Z,93.34
2023-12-16T04:08:44.569Z,93.46
2023-12-16T04:11:13.819Z,93.29
2023-12-16T04:14:29.263Z,93.43
2023-12-16T04:17:48.654Z,93.48
2023-12-16T04:21:45.732Z,93.69
2023-12-16T04:35:34.384Z,93.62
2023-12-16T04:38:02.479Z,93.44
2023-12-16T04:40:34.818Z,93.81
2023-12-16T04:43:04.317Z,94.35
2023-12-16T04:45:36.883Z,94.02
2023-12-16T04:48:08.406Z,93.85
2023-12-16T04:50:38.189Z,93.95
2023-12-16T04:53:09.323Z,94.18
2023-12-16T04:55:40.022Z,94.24
2023-12-16T04:58:08.980Z,94.13
2023-12-16T05:00:36.984Z,93.63
2023-12-16T05:03:05.276Z,93.66
2023-12-16T05:05:33.229Z,93.84
2023-12-16T05:08:01.167Z,94.02
2023-12-16T05:10:29.093Z,93.90
2023-12-16T05:12:57.569Z,94.03
2023-12-16T05:15:26.010Z,93.73
2023-12-16T05:17:55.080Z,93.70
2023-12-16T05:20:23.300Z,93.86
2023-12-16T05:22:51.495Z,93.90
2023-12-16T05:25:21.704Z,93.82
2023-12-16T05:27:53.082Z,93.77
2023-12-16T05:30:21.175Z,93.74
2023-12-16T05:32:51.692Z,93.89
2023-12-16T05:35:22.458Z,93.48
2023-12-16T05:37:53.516Z,93.59
2023-12-16T05:40:21.730Z,93.56
2023-12-16T05:42:51.685Z,93.85
2023-12-16T05:45:19.895Z,93.85
2023-12-16T05:47:49.160Z,93.69
2023-12-16T05:50:17.216Z,93.55
2023-12-16T05:52:47.943Z,94.14
2023-12-16T05:55:16.205Z,94.08
2023-12-16T05:57:44.793Z,93.97
2023-12-16T06:00:14.253Z,94.09
2023-12-16T06:02:43.871Z,94.34
2023-12-16T06:05:11.757Z,94.57
2023-12-16T06:07:40.054Z,94.43
2023-12-16T06:10:08.841Z,94.51
2023-12-16T06:12:36.951Z,94.46
2023-12-16T06:15:07.302Z,94.51
2023-12-16T06:17:37.416Z,94.32
2023-12-16T06:20:06.469Z,94.14
2023-12-16T06:22:36.058Z,93.87
2023-12-16T06:25:07.133Z,93.90
2023-12-16T06:33:34.899Z,94.05
2023-12-16T06:36:03.049Z,93.96
2023-12-16T06:38:35.288Z,94.17
2023-12-16T06:41:04.721Z,94.03
2023-12-16T06:43:32.710Z,94.05
2023-12-16T06:46:04.246Z,94.05
2023-12-16T06:52:37.228Z,94.85
2023-12-16T06:55:06.175Z,94.87
2023-12-16T06:57:59.270Z,94.85
2023-12-16T07:00:27.267Z,95.06
2023-12-16T07:02:55.246Z,95.22
2023-12-16T07:05:23.432Z,95.02
2023-12-16T07:07:51.336Z,94.66
2023-12-16T07:10:19.876Z,94.88
2023-12-16T07:12:47.971Z,95.14
2023-12-16T07:15:18.141Z,95.14
2023-12-16T07:17:46.139Z,94.98
2023-12-16T07:20:16.902Z,94.88
2023-12-16T07:22:45.032Z,94.98
2023-12-16T07:25:15.235Z,94.81
2023-12-16T07:27:43.282Z,94.86
2023-12-16T07:30:12.056Z,94.63
2023-12-16T07:32:46.215Z,94.70
2023-12-16T07:35:21.649Z,94.80
2023-12-16T07:37:49.690Z,94.55
2023-12-16T07:40:21.584Z,94.43
2023-12-16T07:42:49.526Z,94.46
2023-12-16T07:45:17.325Z,94.16
2023-12-16T07:47:45.652Z,93.95
2023-12-16T07:50:18.975Z,93.94
2023-12-16T07:52:50.096Z,93.43
2023-12-16T07:55:19.598Z,93.23
2023-12-16T07:57:47.638Z,93.17
2023-12-16T08:00:18.258Z,93.65
2023-12-16T08:02:46.726Z,93.94
2023-12-16T08:05:14.845Z,93.89
2023-12-16T08:07:46.687Z,93.61
2023-12-16T08:10:14.723Z,93.21
2023-12-16T08:12:42.653Z,93.42
2023-12-16T08:15:10.688Z,92.93
2023-12-16T08:21:00.293Z,91.99
2023-12-16T08:23:28.564Z,92.08
2023-12-16T08:25:59.785Z,91.89
2023-12-16T08:34:40.076Z,90.71
2023-12-16T08:37:08.503Z,90.84
2023-12-16T08:39:36.564Z,89.17
2023-12-16T08:42:06.329Z,87.62
2023-12-16T08:44:37.521Z,85.82
2023-12-16T08:47:07.923Z,84.25
2023-12-16T08:49:38.125Z,83.12
2023-12-16T08:52:07.734Z,81.45
2023-12-16T08:54:35.806Z,79.84
2023-12-16T08:57:04.524Z,76.80
2023-12-16T08:59:33.243Z,76.56
2023-12-16T09:02:03.340Z,74.60
2023-12-16T09:04:31.511Z,73.60
2023-12-16T09:06:59.505Z,72.84
2023-12-16T09:09:27.798Z,73.08
2023-12-16T09:11:55.781Z,74.05
2023-12-16T09:14:23.870Z,74.04
2023-12-16T09:16:51.789Z,74.01
2023-12-16T09:19:19.834Z,72.65
2023-12-16T09:21:49.991Z,73.23
2023-12-16T09:24:19.013Z,73.64
2023-12-16T09:26:47.214Z,74.98
2023-12-16T09:29:15.453Z,75.61
2023-12-16T09:31:47.498Z,77.03
2023-12-16T09:34:40.288Z,78.74
2023-12-16T09:37:08.601Z,80.55
2023-12-16T09:39:36.437Z,80.82
2023-12-16T09:42:04.895Z,81.38
2023-12-16T09:44:39.238Z,81.70
2023-12-16T09:47:16.193Z,82.25
2023-12-16T09:49:53.160Z,82.72
2023-12-16T09:52:22.356Z,83.16
2023-12-16T09:54:53.252Z,83.93
2023-12-16T09:57:23.489Z,83.90
2023-12-16T09:59:56.674Z,83.91
2023-12-16T10:02:31.476Z,83.95
2023-12-16T10:05:12.806Z,84.12
2023-12-16T10:07:43.156Z,83.98
2023-12-16T10:10:14.650Z,83.70
2023-12-16T10:12:43.026Z,83.69
2023-12-16T10:15:31.868Z,83.60
2023-12-16T10:18:04.355Z,83.75
2023-12-16T10:20:36.464Z,84.19
2023-12-16T10:23:09.644Z,84.76
2023-12-16T10:25:38.146Z,84.80
2023-12-16T10:28:09.210Z,84.82
2023-12-16T10:30:38.533Z,84.58
2023-12-16T10:33:10.573Z,84.27
2023-12-16T10:35:40.597Z,83.80
2023-12-16T10:38:13.025Z,83.38
2023-12-16T10:40:51.007Z,83.13
2023-12-16T10:43:39.267Z,82.44
2023-12-16T10:46:40.615Z,82.45
2023-12-16T10:49:09.957Z,82.82
2023-12-16T10:52:10.396Z,82.92
2023-12-16T10:54:43.904Z,82.23
2023-12-16T10:57:42.034Z,82.14
2023-12-16T11:00:15.160Z,82.57
2023-12-16T11:03:16.499Z,82.69
2023-12-16T11:05:58.077Z,82.95
2023-12-16T11:08:31.224Z,83.36
2023-12-16T11:11:00.789Z,83.51
2023-12-16T11:13:30.745Z,84.09
2023-12-16T11:16:13.881Z,84.13
2023-12-16T11:18:47.641Z,84.39
2023-12-16T11:21:20.541Z,84.75
2023-12-16T11:23:56.030Z,84.43
2023-12-16T11:26:27.929Z,84.82
2023-12-16T11:28:56.531Z,84.41
2023-12-16T11:31:29.052Z,84.43
2023-12-16T11:33:57.602Z,84.33
2023-12-16T11:36:49.882Z,84.30
2023-12-16T11:39:42.067Z,84.36
2023-12-16T11:42:20.005Z,84.21
2023-12-16T11:44:58.719Z,84.00
2023-12-16T11:47:29.516Z,84.05
2023-12-16T11:49:59.186Z,83.90
2023-12-16T11:52:31.461Z,84.00
2023-12-16T11:55:01.503Z,84.73
2023-12-16T11:57:37.328Z,84.28
2023-12-16T12:00:06.907Z,84.40
2023-12-16T12:02:39.403Z,84.80
2023-12-16T12:05:15.873Z,84.67
2023-12-16T12:07:46.532Z,84.70
2023-12-16T12:10:17.684Z,84.80
2023-12-16T12:12:48.707Z,84.65
2023-12-16T12:15:20.855Z,84.42
2023-12-16T12:17:51.484Z,84.47
2023-12-16T12:20:20.246Z,84.23
2023-12-16T12:22:48.977Z,84.26
2023-12-16T12:25:20.062Z,84.56
2023-12-16T12:27:50.085Z,84.68
2023-12-16T12:30:21.957Z,84.74
2023-12-16T12:32:50.496Z,84.67
2023-12-16T12:35:24.655Z,84.71
2023-12-16T12:37:52.653Z,84.84
2023-12-16T12:40:22.961Z,84.99
2023-12-16T12:43:01.901Z,85.24
2023-12-16T12:45:35.453Z,85.51
2023-12-16T12:48:17.773Z,85.08
2023-12-16T12:50:48.492Z,85.00
2023-12-16T12:53:24.191Z,84.72
2023-12-16T12:55:59.515Z,85.08
2023-12-16T12:58:31.132Z,85.01
2023-12-16T13:01:06.596Z,84.97
2023-12-16T13:03:39.463Z,85.01
2023-12-16T13:06:09.714Z,85.10
2023-12-16T13:08:41.891Z,84.99
2023-12-16T13:11:12.863Z,85.15
2023-12-16T13:13:40.800Z,85.41
2023-12-16T13:16:13.324Z,85.70
2023-12-16T13:18:45.791Z,85.60
2023-12-16T13:21:14.034Z,86.17
2023-12-16T13:23:42.569Z,86.42
2023-12-16T13:26:14.287Z,86.49
2023-12-16T13:28:45.389Z,86.69
2023-12-16T13:31:13.412Z,86.42
2023-12-16T13:33:55.784Z,86.63
2023-12-16T13:36:34.313Z,86.47
2023-12-16T13:39:13.714Z,86.28
2023-12-16T13:41:44.325Z,86.15
2023-12-16T13:44:13.487Z,86.42
2023-12-16T13:46:47.786Z,86.25
2023-12-16T13:49:19.094Z,86.54
2023-12-16T13:51:56.626Z,86.85
2023-12-16T13:54:24.762Z,87.21
2023-12-16T13:56:53.264Z,87.07
2023-12-16T13:59:21.316Z,86.88
2023-12-16T14:01:49.497Z,87.27
2023-12-16T14:04:19.215Z,87.28
2023-12-16T14:06:47.306Z,86.97
2023-12-16T14:09:15.524Z,86.97
2023-12-16T14:11:45.726Z,86.69
2023-12-16T14:14:13.812Z,86.70
2023-12-16T14:16:42.231Z,86.71
2023-12-16T14:19:10.688Z,87.14
2023-12-16T14:21:41.517Z,87.39
2023-12-16T14:24:12.026Z,87.80
2023-12-16T14:26:40.186Z,87.40
2023-12-16T14:29:10.768Z,87.23
2023-12-16T14:31:38.721Z,86.98
2023-12-16T14:34:09.329Z,87.05
2023-12-16T14:36:37.771Z,87.01
2023-12-16T14:39:06.783Z,86.92
2023-12-16T14:41:35.251Z,86.69
2023-12-16T14:44:04.307Z,86.59
2023-12-16T14:46:32.554Z,87.08
2023-12-16T14:49:00.688Z,86.82
2023-12-16T14:51:31.623Z,86.61
2023-12-16T14:53:59.752Z,86.97
2023-12-16T14:56:27.581Z,87.07
2023-12-16T15:06:26.151Z,86.14
2023-12-16T15:09:00.093Z,86.25
2023-12-16T15:11:28.925Z,86.04
2023-12-16T15:13:56.777Z,86.07
2023-12-16T15:16:24.861Z,86.13
2023-12-16T15:18:57.331Z,86.08
2023-12-16T15:21:28.086Z,86.10
2023-12-16T15:23:56.254Z,86.20
2023-12-16T15:26:26.837Z,86.01
2023-12-16T15:28:55.735Z,85.75
2023-12-16T15:31:24.893Z,85.50
2023-12-16T15:33:53.900Z,85.67
2023-12-16T15:36:22.100Z,86.01
2023-12-16T15:38:51.246Z,86.12
2023-12-16T15:41:19.543Z,86.25
2023-12-16T15:43:47.938Z,86.26
2023-12-16T15:46:15.875Z,86.15
2023-12-16T15:48:43.953Z,86.02
2023-12-16T15:51:12.050Z,86.61
2023-12-16T15:53:44.065Z,86.89
2023-12-16T15:56:11.885Z,86.96
2023-12-16T15:58:39.864Z,86.67
2023-12-16T16:01:07.749Z,86.49
2023-12-16T16:03:36.458Z,86.51
2023-12-16T16:06:04.787Z,86.70
2023-12-16T16:08:33.682Z,86.66
2023-12-16T16:11:01.747Z,86.29
2023-12-16T16:13:29.924Z,85.91
2023-12-16T16:16:09.082Z,86.21
2023-12-16T16:18:37.112Z,86.13
2023-12-16T16:21:05.368Z,85.76
2023-12-16T16:30:32.701Z,84.74
2023-12-16T16:33:00.805Z,84.59
2023-12-16T16:35:32.175Z,84.45
2023-12-16T16:38:00.007Z,84.26
2023-12-16T16:40:28.293Z,83.86
2023-12-16T16:42:56.149Z,84.01
2023-12-16T16:45:24.018Z,84.10
2023-12-16T16:47:52.148Z,83.99
2023-12-16T16:50:20.300Z,84.10
2023-12-16T16:52:48.200Z,84.30
2023-12-16T16:55:16.134Z,84.58
2023-12-16T16:57:44.014Z,84.53
2023-12-16T17:00:12.732Z,84.43
2023-12-16T17:02:40.658Z,84.21
2023-12-16T17:05:08.767Z,84.03
2023-12-16T17:07:36.773Z,84.16
2023-12-16T17:10:06.301Z,84.15
2023-12-16T17:12:34.144Z,84.12
2023-12-16T17:15:02.903Z,84.16
2023-12-16T17:17:32.153Z,84.49
2023-12-16T17:19:59.939Z,85.09
2023-12-16T17:22:28.719Z,85.04
2023-12-16T17:25:00.886Z,85.00
2023-12-16T17:27:28.989Z,85.13
2023-12-16T17:29:57.006Z,85.35
2023-12-16T17:32:25.131Z,85.06
2023-12-16T17:34:53.367Z,85.18
2023-12-16T17:37:21.222Z,85.34
2023-12-16T17:39:49.164Z,85.51
2023-12-16T17:42:17.407Z,85.87
2023-12-16T17:44:45.309Z,85.38
2023-12-16T17:47:13.390Z,85.70
2023-12-16T17:49:41.141Z,85.36
2023-12-16T17:52:12.943Z,85.06
2023-12-16T17:54:40.740Z,84.62
2023-12-16T17:57:08.577Z,85.11
2023-12-16T17:59:36.540Z,85.38
2023-12-16T18:02:05.014Z,85.13
2023-12-16T18:04:32.859Z,85.02
2023-12-16T18:07:00.781Z,84.88
2023-12-16T18:09:28.623Z,84.95
2023-12-16T18:11:58.782Z,84.65
2023-12-16T18:14:26.865Z,84.49
2023-12-16T18:16:55.019Z,84.59
2023-12-16T18:19:28.620Z,84.97
2023-12-16T18:21:57.724Z,85.27
2023-12-16T18:24:27.302Z,85.05
2023-12-16T18:26:55.523Z,84.84
2023-12-16T18:29:24.276Z,84.79
2023-12-16T18:31:53.330Z,84.32
2023-12-16T18:34:32.529Z,84.17
2023-12-16T18:37:04.989Z,84.14
2023-12-16T18:39:37.359Z,83.86
2023-12-16T18:42:07.810Z,83.74
2023-12-16T18:44:36.597Z,83.77
2023-12-16T18:47:05.539Z,83.76
2023-12-16T18:49:33.642Z,83.50
2023-12-16T18:52:02.052Z,83.39
2023-12-16T18:54:30.432Z,83.00
2023-12-16T18:56:58.281Z,82.55
2023-12-16T18:59:26.084Z,83.21
2023-12-16T19:01:54.084Z,83.59
2023-12-16T19:04:34.548Z,83.68
2023-12-16T19:10:47.510Z,85.67
2023-12-16T19:13:16.855Z,85.84
2023-12-16T19:15:45.878Z,86.12
2023-12-16T19:18:14.698Z,86.20
2023-12-16T19:20:44.526Z,85.85
2023-12-16T19:23:13.395Z,85.93
2023-12-16T19:25:42.281Z,85.89
2023-12-16T19:28:10.484Z,85.34
2023-12-16T19:30:38.736Z,84.78
2023-12-16T19:33:06.853Z,84.37
2023-12-16T19:35:34.723Z,83.99
2023-12-16T19:38:02.475Z,83.75
2023-12-16T19:40:30.412Z,83.22
2023-12-16T19:42:58.161Z,82.72
2023-12-16T19:45:26.133Z,82.86
2023-12-16T19:47:54.041Z,82.52
2023-12-16T19:50:22.028Z,82.32
2023-12-16T19:52:49.835Z,82.33
2023-12-16T19:55:17.900Z,81.80
2023-12-16T19:57:46.978Z,81.60
2023-12-16T20:00:16.386Z,81.30
2023-12-16T20:02:44.268Z,81.41
2023-12-16T20:05:12.379Z,81.09
2023-12-16T20:07:40.568Z,81.17
2023-12-16T20:10:08.685Z,80.89
2023-12-16T20:12:36.797Z,80.86
2023-12-16T20:15:08.284Z,80.76
2023-12-16T20:17:36.375Z,81.24
2023-12-16T20:20:05.257Z,81.25
2023-12-16T20:22:35.561Z,81.35
2023-12-16T20:25:03.787Z,81.00
2023-12-16T20:27:31.801Z,80.91
2023-12-16T20:29:59.753Z,80.73
2023-12-16T20:32:27.635Z,80.53
2023-12-16T20:34:55.426Z,80.80
2023-12-16T20:37:25.186Z,81.28
2023-12-16T20:40:12.083Z,81.35
2023-12-16T20:42:43.431Z,81.68
2023-12-16T20:45:11.548Z,81.74
2023-12-16T20:47:39.927Z,81.82
2023-12-16T20:50:23.193Z,81.41
2023-12-16T20:52:55.499Z,81.76
2023-12-16T20:55:23.478Z,81.72
2023-12-16T20:57:51.945Z,81.71
2023-12-16T21:00:57.359Z,81.58
2023-12-16T21:03:36.618Z,81.84
2023-12-16T21:06:41.063Z,82.10
2023-12-16T21:09:09.037Z,82.06
2023-12-16T21:11:42.250Z,82.01
2023-12-16T21:14:10.697Z,82.45
2023-12-16T21:16:38.763Z,83.06
2023-12-16T21:19:07.437Z,83.05
2023-12-16T21:21:36.419Z,83.55
2023-12-16T21:24:04.417Z,83.77
2023-12-16T21:26:33.363Z,84.89
2023-12-16T21:29:01.615Z,85.09
2023-12-16T21:31:30.060Z,85.28
2023-12-16T21:34:00.204Z,85.67
2023-12-16T21:36:30.453Z,86.23
2023-12-16T21:38:58.416Z,86.29
2023-12-16T21:41:26.279Z,87.01
2023-12-16T21:43:55.682Z,87.75
2023-12-16T21:46:24.373Z,88.10
2023-12-16T21:52:05.829Z,88.56
2023-12-16T21:57:38.067Z,89.59
2023-12-16T22:00:13.123Z,90.01
2023-12-16T22:06:06.311Z,90.03
2023-12-16T22:08:49.269Z,90.45
2023-12-16T22:11:36.634Z,90.44
2023-12-16T22:14:05.412Z,90.00
2023-12-16T22:16:37.222Z,89.76
2023-12-16T22:19:16.038Z,90.14
2023-12-16T22:21:49.550Z,90.38
2023-12-16T22:24:17.409Z,90.42
2023-12-16T22:26:45.571Z,90.48
2023-12-16T22:29:13.366Z,90.66
2023-12-16T22:31:41.985Z,90.76
2023-12-16T22:34:10.128Z,90.93
2023-12-16T22:36:38.427Z,91.29
2023-12-16T22:39:07.243Z,91.06
2023-12-16T22:41:35.242Z,90.92
2023-12-16T22:44:03.280Z,91.03
2023-12-16T22:46:31.864Z,90.75
2023-12-16T22:48:59.804Z,90.91
2023-12-16T22:51:28.230Z,90.77
2023-12-16T22:53:58.268Z,90.65
2023-12-16T22:56:26.340Z,90.59
2023-12-16T22:58:54.390Z,90.19
2023-12-16T23:01:22.534Z,90.26
2023-12-16T23:03:50.489Z,90.20
2023-12-16T23:06:19.050Z,90.05
2023-12-16T23:08:49.920Z,89.78
2023-12-16T23:11:18.030Z,89.33
2023-12-16T23:13:46.530Z,89.66
2023-12-16T23:16:14.414Z,89.83
2023-12-16T23:18:42.584Z,90.17
2023-12-16T23:21:10.560Z,90.21
2023-12-16T23:23:42.458Z,90.23
2023-12-16T23:26:10.318Z,90.05
2023-12-16T23:28:38.277Z,90.00
2023-12-16T23:31:11.684Z,90.04
2023-12-16T23:33:44.761Z,90.32
2023-12-16T23:36:13.273Z,90.76
2023-12-16T23:41:17.187Z,90.92
2023-12-16T23:43:45.806Z,91.04
2023-12-16T23:46:14.853Z,91.19
2023-12-16T23:48:44.323Z,91.23
2023-12-16T23:51:13.106Z,91.50
2023-12-16T23:53:46.957Z,91.13
2023-12-16T23:56:16.900Z,90.78
2023-12-16T23:58:45.302Z,90.55
